createdAt,value
2023-03-30T00:01:27.383Z,19.39
2023-03-30T00:03:54.369Z,19.46
2023-03-30T00:06:21.714Z,19.38
2023-03-30T00:08:49.691Z,19.47
2023-03-30T00:11:18.196Z,19.46
2023-03-30T00:13:45.074Z,19.44
2023-03-30T00:16:13.756Z,19.40
2023-03-30T00:18:41.362Z,19.23
2023-03-30T00:21:08.951Z,19.30
2023-03-30T00:23:35.826Z,19.09
2023-03-30T00:26:03.470Z,19.10
2023-03-30T00:28:31.671Z,19.13
2023-03-30T00:30:58.804Z,19.18
2023-03-30T00:33:37.266Z,19.08
2023-03-30T00:36:09.303Z,19.16
2023-03-30T00:38:36.498Z,19.26
2023-03-30T00:41:03.515Z,19.26
2023-03-30T00:43:31.849Z,19.16
2023-03-30T00:45:59.238Z,19.17
2023-03-30T00:48:30.546Z,19.31
2023-03-30T00:51:02.190Z,19.22
2023-03-30T00:53:34.157Z,19.29
2023-03-30T00:56:04.786Z,19.29
2023-03-30T00:58:35.225Z,19.29
2023-03-30T01:01:05.216Z,19.37
2023-03-30T01:03:34.639Z,19.39
2023-03-30T01:06:05.340Z,19.43
2023-03-30T01:08:32.706Z,19.45
2023-03-30T01:11:00.000Z,19.37
2023-03-30T01:13:27.965Z,19.33
2023-03-30T01:16:10.260Z,19.14
2023-03-30T01:18:48.797Z,18.94
2023-03-30T01:21:41.956Z,19.06
2023-03-30T01:24:39.925Z,18.95
2023-03-30T01:27:18.469Z,19.13
2023-03-30T01:30:04.855Z,19.29
2023-03-30T01:33:16.584Z,19.24
2023-03-30T01:36:22.903Z,19.23
2023-03-30T01:39:29.753Z,19.19
2023-03-30T01:42:00.641Z,19.36
2023-03-30T01:44:34.602Z,19.38
2023-03-30T01:47:10.892Z,18.96
2023-03-30T01:49:45.257Z,18.49
2023-03-30T01:52:18.560Z,18.85
2023-03-30T01:54:51.290Z,18.81
2023-03-30T01:57:21.959Z,19.03
2023-03-30T01:59:55.840Z,18.54
2023-03-30T02:02:27.567Z,19.08
2023-03-30T02:04:56.493Z,18.91
2023-03-30T02:07:28.509Z,19.15
2023-03-30T02:10:01.937Z,19.29
2023-03-30T02:12:30.636Z,19.14
2023-03-30T02:15:01.218Z,19.25
2023-03-30T02:19:58.391Z,18.94
2023-03-30T02:22:27.700Z,18.99
2023-03-30T02:24:57.662Z,18.73
2023-03-30T02:27:26.265Z,18.42
2023-03-30T02:29:53.602Z,18.39
2023-03-30T02:32:24.567Z,18.65
2023-03-30T02:35:23.158Z,18.73
2023-03-30T02:38:21.754Z,18.41
2023-03-30T02:40:59.792Z,18.30
2023-03-30T02:43:35.507Z,18.29
2023-03-30T02:46:20.145Z,18.44
2023-03-30T02:48:56.651Z,17.95
2023-03-30T02:51:39.238Z,17.75
2023-03-30T02:54:18.687Z,17.79
2023-03-30T02:56:54.496Z,17.86
2023-03-30T02:59:28.355Z,18.06
2023-03-30T03:01:59.448Z,18.18
2023-03-30T03:04:28.954Z,17.94
2023-03-30T03:06:56.208Z,17.79
2023-03-30T03:09:23.773Z,17.58
2023-03-30T03:11:53.248Z,17.77
2023-03-30T03:14:20.286Z,17.88
2023-03-30T03:16:49.492Z,17.89
2023-03-30T03:19:16.317Z,17.33
2023-03-30T03:21:43.458Z,17.02
2023-03-30T03:24:10.231Z,17.06
2023-03-30T03:26:37.307Z,16.81
2023-03-30T03:29:05.738Z,17.04
2023-03-30T03:31:32.687Z,17.27
2023-03-30T03:33:59.843Z,17.25
2023-03-30T03:36:26.943Z,17.26
2023-03-30T03:38:54.032Z,17.03
2023-03-30T03:41:20.739Z,17.28
2023-03-30T03:43:47.900Z,17.45
2023-03-30T03:46:16.372Z,17.76
2023-03-30T03:48:43.100Z,17.72
2023-03-30T03:51:09.880Z,17.09
2023-03-30T03:53:36.692Z,17.29
2023-03-30T03:56:03.605Z,17.31
2023-03-30T03:58:30.731Z,17.35
2023-03-30T04:01:01.897Z,17.56
2023-03-30T04:03:30.791Z,17.46
2023-03-30T04:06:01.567Z,17.63
2023-03-30T04:08:28.729Z,17.68
2023-03-30T04:10:55.860Z,17.52
2023-03-30T04:13:22.688Z,17.46
2023-03-30T04:15:49.363Z,17.30
2023-03-30T04:18:16.419Z,17.35
2023-03-30T04:20:44.862Z,17.19
2023-03-30T04:23:11.695Z,17.53
2023-03-30T04:25:38.709Z,17.68
2023-03-30T04:28:06.049Z,17.87
2023-03-30T04:30:32.696Z,17.71
2023-03-30T04:32:59.544Z,17.68
2023-03-30T04:35:26.370Z,18.00
2023-03-30T04:37:54.837Z,17.85
2023-03-30T04:40:21.468Z,17.55
2023-03-30T04:42:48.124Z,17.37
2023-03-30T04:45:14.948Z,16.21
2023-03-30T04:47:42.123Z,16.12
2023-03-30T04:50:10.518Z,16.23
2023-03-30T04:52:37.422Z,16.39
2023-03-30T04:55:06.898Z,16.66
2023-03-30T04:57:33.634Z,17.04
2023-03-30T05:00:00.797Z,16.83
2023-03-30T05:02:28.752Z,16.79
2023-03-30T05:04:55.621Z,17.04
2023-03-30T05:07:22.710Z,17.37
2023-03-30T05:09:49.520Z,17.46
2023-03-30T05:12:18.004Z,17.52
2023-03-30T05:14:44.825Z,17.93
2023-03-30T05:17:11.548Z,17.96
2023-03-30T05:19:38.606Z,17.87
2023-03-30T05:22:05.385Z,17.76
2023-03-30T05:24:32.139Z,17.85
2023-03-30T05:26:58.963Z,17.93
2023-03-30T05:29:27.272Z,17.73
2023-03-30T05:31:53.905Z,17.94
2023-03-30T05:34:20.736Z,17.89
2023-03-30T05:36:47.479Z,18.06
2023-03-30T05:39:14.262Z,18.02
2023-03-30T05:41:41.338Z,17.99
2023-03-30T05:44:08.131Z,17.94
2023-03-30T05:46:36.630Z,18.10
2023-03-30T05:49:04.019Z,18.05
2023-03-30T05:51:31.105Z,18.01
2023-03-30T05:53:58.128Z,18.10
2023-03-30T05:56:25.118Z,18.15
2023-03-30T05:58:51.926Z,18.17
2023-03-30T06:01:18.638Z,18.07
2023-03-30T06:03:48.232Z,18.08
2023-03-30T06:06:15.281Z,17.98
2023-03-30T06:08:42.329Z,17.86
2023-03-30T06:11:09.174Z,17.77
2023-03-30T06:13:36.213Z,17.72
2023-03-30T06:16:03.624Z,17.68
2023-03-30T06:18:30.805Z,17.61
2023-03-30T06:20:58.979Z,17.46
2023-03-30T06:23:26.044Z,17.65
2023-03-30T06:25:53.194Z,17.71
2023-03-30T06:28:20.431Z,17.76
2023-03-30T06:30:47.443Z,17.65
2023-03-30T06:33:14.445Z,17.79
2023-03-30T06:35:45.259Z,18.09
2023-03-30T06:38:13.803Z,18.29
2023-03-30T06:40:41.329Z,18.34
2023-03-30T06:43:08.924Z,18.47
2023-03-30T06:45:35.791Z,18.41
2023-03-30T06:48:02.738Z,18.37
2023-03-30T06:50:29.596Z,18.23
2023-03-30T06:52:56.487Z,18.28
2023-03-30T06:55:25.273Z,18.29
2023-03-30T06:57:52.056Z,18.35
2023-03-30T07:00:20.392Z,18.36
2023-03-30T07:02:47.211Z,18.35
2023-03-30T07:05:14.097Z,18.49
2023-03-30T07:07:41.424Z,18.45
2023-03-30T07:10:08.678Z,18.46
2023-03-30T07:12:36.885Z,18.58
2023-03-30T07:15:04.136Z,18.64
2023-03-30T07:17:30.882Z,18.79
2023-03-30T07:19:58.000Z,18.94
2023-03-30T07:22:24.888Z,18.99
2023-03-30T07:24:51.732Z,19.03
2023-03-30T07:27:18.640Z,19.02
2023-03-30T07:29:47.167Z,18.91
2023-03-30T07:32:14.117Z,19.02
2023-03-30T07:34:40.985Z,18.93
2023-03-30T07:37:07.844Z,19.01
2023-03-30T07:39:34.935Z,19.00
2023-03-30T07:42:01.916Z,18.95
2023-03-30T07:44:28.732Z,18.90
2023-03-30T07:46:57.556Z,18.96
2023-03-30T07:49:24.965Z,18.96
2023-03-30T07:51:53.775Z,19.18
2023-03-30T07:54:20.602Z,19.26
2023-03-30T07:56:47.348Z,19.27
2023-03-30T07:59:14.173Z,19.23
2023-03-30T08:01:40.869Z,19.21
2023-03-30T08:04:09.071Z,19.17
2023-03-30T08:06:35.898Z,19.29
2023-03-30T08:09:02.983Z,19.50
2023-03-30T08:11:29.754Z,19.61
2023-03-30T08:13:56.403Z,19.89
2023-03-30T08:16:23.919Z,20.08
2023-03-30T08:18:51.921Z,20.39
2023-03-30T08:21:20.510Z,20.20
2023-03-30T08:23:47.316Z,20.15
2023-03-30T08:26:14.140Z,20.09
2023-03-30T08:28:41.240Z,20.09
2023-03-30T08:31:09.783Z,20.04
2023-03-30T08:33:37.007Z,19.94
2023-03-30T08:36:04.488Z,19.59
2023-03-30T08:38:33.008Z,19.52
2023-03-30T08:41:00.150Z,19.55
2023-03-30T08:43:43.021Z,19.78
2023-03-30T08:46:14.529Z,19.82
2023-03-30T08:48:42.165Z,19.51
2023-03-30T08:51:18.851Z,19.15
2023-03-30T08:53:48.515Z,18.90
2023-03-30T08:56:20.712Z,18.75
2023-03-30T08:58:58.330Z,18.84
2023-03-30T09:01:33.668Z,19.01
2023-03-30T09:04:16.575Z,18.91
2023-03-30T09:06:50.197Z,18.89
2023-03-30T09:09:21.452Z,18.76
2023-03-30T09:11:54.149Z,19.08
2023-03-30T09:14:31.621Z,19.11
2023-03-30T09:17:03.926Z,19.18
2023-03-30T09:19:35.449Z,19.78
2023-03-30T09:22:05.600Z,20.48
2023-03-30T09:24:34.852Z,20.92
2023-03-30T09:27:07.866Z,20.47
2023-03-30T09:29:43.661Z,20.72
2023-03-30T09:32:14.860Z,20.58
2023-03-30T09:34:47.128Z,20.85
2023-03-30T09:37:15.833Z,20.82
2023-03-30T09:39:44.420Z,20.82
2023-03-30T09:42:21.737Z,20.98
2023-03-30T09:44:52.082Z,21.15
2023-03-30T09:47:24.215Z,20.43
2023-03-30T09:49:56.625Z,21.41
2023-03-30T09:52:25.976Z,22.00
2023-03-30T09:54:54.511Z,21.67
2023-03-30T09:57:28.613Z,21.95
2023-03-30T09:59:56.797Z,21.71
2023-03-30T10:02:24.813Z,21.82
2023-03-30T10:05:03.785Z,22.05
2023-03-30T10:07:35.905Z,22.13
2023-03-30T10:10:15.278Z,22.01
2023-03-30T10:12:42.694Z,22.63
2023-03-30T10:15:16.538Z,22.34
2023-03-30T10:17:46.942Z,21.97
2023-03-30T10:20:25.453Z,21.55
2023-03-30T10:22:54.403Z,21.60
2023-03-30T10:25:26.291Z,21.72
2023-03-30T10:27:56.486Z,21.75
2023-03-30T10:30:26.279Z,21.72
2023-03-30T10:32:56.232Z,21.97
2023-03-30T10:35:26.372Z,21.76
2023-03-30T10:37:56.870Z,21.80
2023-03-30T10:40:34.902Z,22.22
2023-03-30T10:43:03.128Z,21.99
2023-03-30T10:45:37.699Z,21.11
2023-03-30T10:48:19.490Z,20.96
2023-03-30T10:50:56.141Z,21.13
2023-03-30T10:53:35.018Z,20.05
2023-03-30T10:56:16.161Z,20.29
2023-03-30T10:58:56.404Z,20.79
2023-03-30T11:01:32.769Z,19.93
2023-03-30T11:04:12.778Z,20.37
2023-03-30T11:06:44.490Z,20.34
2023-03-30T11:09:16.515Z,18.81
2023-03-30T11:11:51.169Z,19.19
2023-03-30T11:14:25.693Z,18.89
2023-03-30T11:16:56.753Z,19.11
2023-03-30T11:19:26.869Z,19.35
2023-03-30T11:22:02.477Z,18.18
2023-03-30T11:24:29.651Z,18.54
2023-03-30T11:27:03.692Z,18.85
2023-03-30T11:29:36.178Z,18.31
2023-03-30T11:32:17.225Z,18.27
2023-03-30T11:34:54.912Z,18.39
2023-03-30T11:37:28.860Z,18.83
2023-03-30T11:40:00.206Z,19.02
2023-03-30T11:42:31.347Z,19.28
2023-03-30T11:44:59.212Z,19.00
2023-03-30T11:47:42.025Z,19.29
2023-03-30T11:50:20.729Z,19.45
2023-03-30T11:52:59.762Z,19.33
2023-03-30T11:55:39.987Z,19.36
2023-03-30T11:58:20.605Z,19.39
2023-03-30T12:01:00.469Z,20.35
2023-03-30T12:03:36.940Z,20.80
2023-03-30T12:06:27.015Z,21.33
2023-03-30T12:09:17.570Z,20.90
2023-03-30T12:11:49.894Z,21.14
2023-03-30T12:15:02.357Z,20.70
2023-03-30T12:17:45.257Z,21.49
2023-03-30T12:20:33.631Z,22.32
2023-03-30T12:23:09.918Z,23.79
2023-03-30T12:25:57.142Z,24.96
2023-03-30T12:28:34.966Z,24.64
2023-03-30T12:31:14.574Z,24.26
2023-03-30T12:33:46.160Z,22.33
2023-03-30T12:36:30.751Z,22.47
2023-03-30T12:38:58.925Z,22.13
2023-03-30T12:41:27.624Z,22.31
2023-03-30T12:44:20.624Z,21.59
2023-03-30T12:47:00.586Z,20.22
2023-03-30T12:49:40.428Z,19.37
2023-03-30T12:52:12.844Z,18.92
2023-03-30T12:55:04.961Z,19.22
2023-03-30T12:57:41.379Z,20.47
2023-03-30T13:00:32.277Z,21.60
2023-03-30T13:03:28.733Z,21.54
2023-03-30T13:06:00.890Z,22.22
2023-03-30T13:08:32.697Z,22.12
2023-03-30T13:11:07.900Z,22.28
2023-03-30T13:14:15.222Z,22.03
2023-03-30T13:17:10.603Z,22.15
2023-03-30T13:19:44.246Z,22.87
2023-03-30T13:22:29.181Z,23.37
2023-03-30T13:25:00.032Z,23.27
2023-03-30T13:27:31.276Z,23.36
2023-03-30T13:30:00.406Z,23.31
2023-03-30T13:32:44.180Z,23.21
2023-03-30T13:35:35.206Z,21.48
2023-03-30T13:38:25.920Z,20.70
2023-03-30T13:41:05.215Z,21.18
2023-03-30T13:43:46.389Z,21.35
2023-03-30T13:46:18.396Z,21.04
2023-03-30T13:49:02.836Z,20.98
2023-03-30T13:51:31.847Z,21.75
2023-03-30T13:54:03.552Z,22.11
2023-03-30T13:56:34.141Z,22.59
2023-03-30T13:59:06.069Z,22.73
2023-03-30T14:01:34.029Z,23.47
2023-03-30T14:04:01.149Z,21.60
2023-03-30T14:06:30.572Z,21.99
2023-03-30T14:09:13.795Z,21.76
2023-03-30T14:11:44.948Z,22.13
2023-03-30T14:14:17.840Z,21.43
2023-03-30T14:16:45.177Z,21.61
2023-03-30T14:19:20.442Z,21.98
2023-03-30T14:21:47.840Z,22.42
2023-03-30T14:24:18.378Z,22.81
2023-03-30T14:26:46.898Z,22.74
2023-03-30T14:29:28.295Z,22.90
2023-03-30T14:32:08.062Z,22.87
2023-03-30T14:34:35.324Z,21.94
2023-03-30T14:37:05.496Z,22.19
2023-03-30T14:39:40.091Z,22.56
2023-03-30T14:42:17.241Z,22.46
2023-03-30T14:44:45.971Z,23.12
2023-03-30T14:47:13.275Z,23.35
2023-03-30T14:49:43.094Z,23.77
2023-03-30T14:52:16.784Z,23.21
2023-03-30T14:54:57.706Z,23.40
2023-03-30T14:57:30.732Z,22.42
2023-03-30T15:00:00.397Z,21.92
2023-03-30T15:02:30.535Z,22.23
2023-03-30T15:04:59.166Z,22.26
2023-03-30T15:07:30.582Z,22.24
2023-03-30T15:10:00.575Z,22.21
2023-03-30T15:12:32.139Z,21.99
2023-03-30T15:15:03.494Z,22.41
2023-03-30T15:17:32.593Z,22.24
2023-03-30T15:20:02.516Z,22.17
2023-03-30T15:22:33.338Z,22.27
2023-03-30T15:25:05.524Z,22.61
2023-03-30T15:27:36.138Z,22.46
2023-03-30T15:30:03.846Z,22.88
2023-03-30T15:32:33.684Z,23.00
2023-03-30T15:35:08.532Z,22.49
2023-03-30T15:37:36.121Z,23.17
2023-03-30T15:40:26.305Z,23.72
2023-03-30T15:43:11.888Z,23.99
2023-03-30T15:45:39.241Z,23.13
2023-03-30T15:48:10.002Z,22.62
2023-03-30T15:50:37.343Z,22.68
2023-03-30T15:53:04.950Z,22.99
2023-03-30T15:55:33.904Z,23.10
2023-03-30T15:58:01.062Z,23.35
2023-03-30T16:00:29.599Z,22.83
2023-03-30T16:02:58.446Z,22.46
2023-03-30T16:05:28.751Z,22.53
2023-03-30T16:07:56.197Z,22.47
2023-03-30T16:10:26.346Z,22.42
2023-03-30T16:12:56.218Z,22.36
2023-03-30T16:15:26.168Z,22.49
2023-03-30T16:17:53.572Z,21.79
2023-03-30T16:20:22.301Z,21.69
2023-03-30T16:22:50.138Z,21.24
2023-03-30T16:25:18.368Z,21.74
2023-03-30T16:27:46.245Z,21.07
2023-03-30T16:30:20.173Z,20.93
2023-03-30T16:32:47.356Z,20.77
2023-03-30T16:35:14.713Z,21.01
2023-03-30T16:37:41.749Z,21.27
2023-03-30T16:40:26.341Z,21.82
2023-03-30T16:42:54.267Z,22.05
2023-03-30T16:45:22.496Z,21.24
2023-03-30T16:47:49.292Z,21.24
2023-03-30T16:50:21.092Z,21.76
2023-03-30T16:52:48.347Z,22.14
2023-03-30T16:55:16.185Z,22.42
2023-03-30T16:57:43.537Z,22.87
2023-03-30T17:00:18.010Z,23.49
2023-03-30T17:02:46.719Z,23.69
2023-03-30T17:05:14.073Z,23.51
2023-03-30T17:07:41.365Z,23.30
2023-03-30T17:10:18.678Z,23.01
2023-03-30T17:12:45.488Z,22.52
2023-03-30T17:15:12.562Z,22.21
2023-03-30T17:17:39.699Z,22.02
2023-03-30T17:20:29.059Z,21.90
2023-03-30T17:22:56.136Z,21.95
2023-03-30T17:25:23.857Z,22.04
2023-03-30T17:27:52.170Z,22.02
2023-03-30T17:30:23.018Z,21.84
2023-03-30T17:32:50.647Z,21.82
2023-03-30T17:35:18.627Z,21.77
2023-03-30T17:37:47.333Z,21.65
2023-03-30T17:40:20.045Z,21.61
2023-03-30T17:42:48.202Z,21.38
2023-03-30T17:45:17.881Z,21.39
2023-03-30T17:47:46.119Z,21.44
2023-03-30T17:50:22.464Z,21.46
2023-03-30T17:52:51.369Z,21.58
2023-03-30T17:55:21.624Z,21.50
2023-03-30T17:57:48.506Z,21.76
2023-03-30T18:00:23.533Z,21.73
2023-03-30T18:02:51.644Z,21.56
2023-03-30T18:05:20.224Z,21.67
2023-03-30T18:07:47.832Z,21.50
2023-03-30T18:10:22.892Z,21.41
2023-03-30T18:12:50.298Z,21.45
2023-03-30T18:15:19.019Z,21.63
2023-03-30T18:17:45.934Z,21.55
2023-03-30T18:20:32.604Z,21.45
2023-03-30T18:23:00.191Z,21.34
2023-03-30T18:25:32.469Z,21.26
2023-03-30T18:28:00.486Z,21.13
2023-03-30T18:30:29.626Z,21.18
2023-03-30T18:32:57.575Z,20.86
2023-03-30T18:35:26.640Z,20.65
2023-03-30T18:37:54.168Z,20.45
2023-03-30T18:40:24.807Z,20.42
2023-03-30T18:42:53.699Z,20.36
2023-03-30T18:45:23.394Z,20.21
2023-03-30T18:47:50.476Z,20.35
2023-03-30T18:50:21.836Z,20.38
2023-03-30T18:52:49.217Z,20.54
2023-03-30T18:55:16.904Z,20.49
2023-03-30T18:57:44.220Z,20.49
2023-03-30T19:00:19.510Z,20.50
2023-03-30T19:02:46.345Z,20.44
2023-03-30T19:05:13.404Z,20.34
2023-03-30T19:07:40.634Z,20.38
2023-03-30T19:10:11.112Z,20.44
2023-03-30T19:12:37.996Z,20.48
2023-03-30T19:15:06.107Z,20.56
2023-03-30T19:17:34.331Z,20.52
2023-03-30T19:20:01.212Z,20.62
2023-03-30T19:22:28.355Z,20.69
2023-03-30T19:24:55.107Z,20.35
2023-03-30T19:27:22.130Z,20.46
2023-03-30T19:29:48.920Z,20.48
2023-03-30T19:32:16.067Z,20.51
2023-03-30T19:34:44.292Z,20.41
2023-03-30T19:37:11.065Z,20.28
2023-03-30T19:39:37.895Z,19.90
2023-03-30T19:42:05.297Z,20.01
2023-03-30T19:44:32.995Z,19.78
2023-03-30T19:46:59.822Z,19.58
2023-03-30T19:49:26.634Z,19.59
2023-03-30T19:51:54.844Z,19.46
2023-03-30T19:54:21.658Z,19.41
2023-03-30T19:56:48.805Z,19.39
2023-03-30T19:59:15.912Z,19.29
2023-03-30T20:01:43.044Z,19.14
2023-03-30T20:04:10.077Z,19.27
2023-03-30T20:06:36.946Z,19.34
2023-03-30T20:09:05.633Z,19.43
2023-03-30T20:11:32.481Z,19.33
2023-03-30T20:13:59.517Z,19.51
2023-03-30T20:16:26.405Z,19.62
2023-03-30T20:18:54.070Z,19.52
2023-03-30T20:21:22.247Z,19.47
2023-03-30T20:23:49.068Z,19.33
2023-03-30T20:26:17.677Z,19.26
2023-03-30T20:28:44.695Z,19.47
2023-03-30T20:31:12.441Z,18.92
2023-03-30T20:33:39.360Z,19.44
2023-03-30T20:36:07.094Z,19.19
2023-03-30T20:38:34.026Z,19.17
2023-03-30T20:41:02.601Z,19.15
2023-03-30T20:43:30.909Z,19.13
2023-03-30T20:45:58.094Z,18.88
2023-03-30T20:48:24.986Z,19.07
2023-03-30T20:50:51.883Z,18.84
2023-03-30T20:53:18.661Z,18.84
2023-03-30T20:55:45.818Z,18.55
2023-03-30T20:58:12.614Z,18.41
2023-03-30T21:00:41.102Z,18.53
2023-03-30T21:03:07.914Z,18.61
2023-03-30T21:05:34.625Z,18.52
2023-03-30T21:08:01.682Z,18.62
2023-03-30T21:10:28.453Z,18.51
2023-03-30T21:12:55.235Z,18.67
2023-03-30T21:15:22.061Z,18.64
2023-03-30T21:17:50.160Z,18.57
2023-03-30T21:20:17.239Z,18.43
2023-03-30T21:22:44.152Z,18.19
2023-03-30T21:25:11.018Z,18.14
2023-03-30T21:27:37.777Z,17.92
2023-03-30T21:30:05.691Z,18.14
2023-03-30T21:32:32.998Z,18.29
2023-03-30T21:35:02.947Z,18.44
2023-03-30T21:37:29.786Z,18.56
2023-03-30T21:39:56.838Z,18.33
2023-03-30T21:42:23.661Z,18.40
2023-03-30T21:44:50.491Z,18.31
2023-03-30T21:47:17.625Z,18.43
2023-03-30T21:49:44.697Z,18.33
2023-03-30T21:52:13.185Z,18.19
2023-03-30T21:54:39.943Z,18.37
2023-03-30T21:57:07.097Z,18.53
2023-03-30T21:59:34.201Z,18.72
2023-03-30T22:02:01.201Z,18.90
2023-03-30T22:04:28.192Z,18.86
2023-03-30T22:06:55.326Z,18.81
2023-03-30T22:09:23.761Z,18.86
2023-03-30T22:11:50.879Z,18.70
2023-03-30T22:14:17.697Z,18.80
2023-03-30T22:16:44.647Z,18.58
2023-03-30T22:19:11.563Z,18.72
2023-03-30T22:21:38.399Z,18.61
2023-03-30T22:24:07.231Z,18.81
2023-03-30T22:26:36.125Z,18.67
2023-03-30T22:29:03.957Z,18.72
2023-03-30T22:31:30.886Z,18.49
2023-03-30T22:33:58.012Z,18.52
2023-03-30T22:36:26.723Z,18.78
2023-03-30T22:38:55.821Z,18.77
2023-03-30T22:41:22.514Z,18.46
2023-03-30T22:43:51.192Z,18.52
2023-03-30T22:46:18.364Z,18.59
2023-03-30T22:48:45.141Z,18.20
2023-03-30T22:51:12.007Z,18.14
2023-03-30T22:53:39.099Z,18.06
2023-03-30T22:56:07.076Z,17.61
2023-03-30T22:58:33.941Z,17.99
2023-03-30T23:01:03.495Z,17.92
2023-03-30T23:03:30.568Z,18.11
2023-03-30T23:05:57.328Z,17.96
2023-03-30T23:08:24.056Z,17.81
2023-03-30T23:10:52.255Z,17.96
2023-03-30T23:13:19.062Z,17.93
2023-03-30T23:15:46.176Z,17.97
2023-03-30T23:18:14.710Z,17.84
2023-03-30T23:20:41.660Z,18.10
2023-03-30T23:23:08.748Z,18.07
2023-03-30T23:25:35.739Z,18.14
2023-03-30T23:28:02.562Z,18.05
2023-03-30T23:30:29.683Z,17.91
2023-03-30T23:32:56.741Z,17.85
2023-03-30T23:35:24.898Z,17.82
2023-03-30T23:37:51.776Z,17.63
2023-03-30T23:40:18.561Z,17.62
2023-03-30T23:42:45.654Z,17.78
2023-03-30T23:45:12.433Z,17.50
2023-03-30T23:47:39.541Z,17.63
2023-03-30T23:50:07.702Z,17.61
2023-03-30T23:52:36.728Z,17.26
2023-03-30T23:55:03.702Z,17.22
2023-03-30T23:57:30.611Z,17.41
2023-03-30T23:59:57.413Z,17.26
